sensor_id;sensor_type;location;lat;lon;timestamp;pressure;altitude;pressure_sealevel;temperature;humidity
13080;BME280;6606;49.154;9.280;2023-02-23T00:01:38;99333.31;;;10.46;100.00
13080;BME280;6606;49.154;9.280;2023-02-23T00:04:22;99329.28;;;10.39;100.00
13080;BME280;6606;49.154;9.280;2023-02-23T00:07:04;99329.72;;;10.47;100.00
13080;BME280;6606;49.154;9.280;2023-02-23T00:09:46;99327.50;;;10.40;100.00
13080;BME280;6606;49.154;9.280;2023-02-23T00:12:28;99329.41;;;10.53;100.00
13080;BME280;6606;49.154;9.280;2023-02-23T00:15:10;99326.56;;;10.56;100.00
13080;BME280;6606;49.154;9.280;2023-02-23T00:17:52;99327.34;;;10.59;100.00
13080;BME280;6606;49.154;9.280;2023-02-23T00:20:36;99317.66;;;10.57;100.00
13080;BME280;6606;49.154;9.280;2023-02-23T00:23:23;99326.16;;;10.64;100.00
13080;BME280;6606;49.154;9.280;2023-02-23T00:26:06;99317.66;;;10.57;100.00
13080;BME280;6606;49.154;9.280;2023-02-23T00:28:49;99317.41;;;10.62;100.00
13080;BME280;6606;49.154;9.280;2023-02-23T00:31:31;99317.91;;;10.69;100.00
13080;BME280;6606;49.154;9.280;2023-02-23T00:34:15;99313.56;;;10.68;100.00
13080;BME280;6606;49.154;9.280;2023-02-23T00:37:01;99319.09;;;10.79;100.00
13080;BME280;6606;49.154;9.280;2023-02-23T00:39:43;99313.63;;;10.82;100.00
13080;BME280;6606;49.154;9.280;2023-02-23T00:42:25;99314.41;;;10.84;100.00
13080;BME280;6606;49.154;9.280;2023-02-23T00:45:15;99311.69;;;10.86;100.00
13080;BME280;6606;49.154;9.280;2023-02-23T00:47:59;99313.47;;;10.85;100.00
13080;BME280;6606;49.154;9.280;2023-02-23T00:50:43;99311.75;;;10.84;100.00
13080;BME280;6606;49.154;9.280;2023-02-23T00:53:26;99310.91;;;10.84;100.00
13080;BME280;6606;49.154;9.280;2023-02-23T00:56:10;99312.59;;;10.85;100.00
13080;BME280;6606;49.154;9.280;2023-02-23T00:58:53;99309.28;;;10.81;100.00
13080;BME280;6606;49.154;9.280;2023-02-23T01:01:34;99303.91;;;10.83;100.00
13080;BME280;6606;49.154;9.280;2023-02-23T01:04:17;99312.53;;;10.86;100.00
13080;BME280;6606;49.154;9.280;2023-02-23T01:06:58;99303.03;;;10.82;100.00
13080;BME280;6606;49.154;9.280;2023-02-23T01:09:44;99302.50;;;10.91;100.00
13080;BME280;6606;49.154;9.280;2023-02-23T01:12:26;99311.25;;;10.93;100.00
13080;BME280;6606;49.154;9.280;2023-02-23T01:15:09;99307.06;;;10.73;100.00
13080;BME280;6606;49.154;9.280;2023-02-23T01:17:51;99302.59;;;10.74;100.00
13080;BME280;6606;49.154;9.280;2023-02-23T01:20:33;99306.69;;;10.79;100.00
13080;BME280;6606;49.154;9.280;2023-02-23T01:23:16;99307.00;;;10.75;100.00
13080;BME280;6606;49.154;9.280;2023-02-23T01:26:02;99301.69;;;10.75;100.00
13080;BME280;6606;49.154;9.280;2023-02-23T01:28:47;99298.09;;;10.76;100.00
13080;BME280;6606;49.154;9.280;2023-02-23T01:31:31;99300.72;;;10.76;100.00
13080;BME280;6606;49.154;9.280;2023-02-23T01:34:13;99303.38;;;10.76;100.00
13080;BME280;6606;49.154;9.280;2023-02-23T01:36:55;99301.50;;;10.78;100.00
13080;BME280;6606;49.154;9.280;2023-02-23T01:39:37;99292.59;;;10.79;100.00
13080;BME280;6606;49.154;9.280;2023-02-23T01:42:20;99298.63;;;10.67;100.00
13080;BME280;6606;49.154;9.280;2023-02-23T01:45:21;99299.97;;;10.42;100.00
13080;BME280;6606;49.154;9.280;2023-02-23T01:48:07;99291.78;;;10.31;100.00
13080;BME280;6606;49.154;9.280;2023-02-23T01:50:55;99288.22;;;10.32;100.00
13080;BME280;6606;49.154;9.280;2023-02-23T01:53:41;99295.19;;;10.33;100.00
13080;BME280;6606;49.154;9.280;2023-02-23T01:56:28;99300.06;;;10.41;100.00
13080;BME280;6606;49.154;9.280;2023-02-23T01:59:16;99296.22;;;10.46;100.00
13080;BME280;6606;49.154;9.280;2023-02-23T02:01:58;99293.59;;;10.46;100.00
13080;BME280;6606;49.154;9.280;2023-02-23T02:04:41;99292.81;;;10.44;100.00
13080;BME280;6606;49.154;9.280;2023-02-23T02:07:25;99292.81;;;10.44;100.00
13080;BME280;6606;49.154;9.280;2023-02-23T02:10:10;99289.97;;;10.47;100.00
13080;BME280;6606;49.154;9.280;2023-02-23T02:13:13;99287.16;;;10.50;100.00
13080;BME280;6606;49.154;9.280;2023-02-23T02:16:19;99291.41;;;10.53;100.00
13080;BME280;6606;49.154;9.280;2023-02-23T02:25:49;99281.63;;;9.90;100.00
13080;BME280;6606;49.154;9.280;2023-02-23T02:32:25;99291.72;;;9.99;100.00
13080;BME280;6606;49.154;9.280;2023-02-23T02:35:35;99284.88;;;9.95;100.00
13080;BME280;6606;49.154;9.280;2023-02-23T02:38:33;99280.03;;;10.03;100.00
13080;BME280;6606;49.154;9.280;2023-02-23T02:41:27;99278.91;;;10.07;100.00
13080;BME280;6606;49.154;9.280;2023-02-23T02:44:17;99277.34;;;9.87;100.00
13080;BME280;6606;49.154;9.280;2023-02-23T02:47:05;99277.38;;;10.03;100.00
13080;BME280;6606;49.154;9.280;2023-02-23T02:49:51;99280.63;;;10.08;100.00
13080;BME280;6606;49.154;9.280;2023-02-23T02:52:40;99279.09;;;10.04;100.00
13080;BME280;6606;49.154;9.280;2023-02-23T02:55:28;99277.03;;;10.09;100.00
13080;BME280;6606;49.154;9.280;2023-02-23T02:58:14;99273.97;;;10.01;100.00
13080;BME280;6606;49.154;9.280;2023-02-23T03:01:05;99267.53;;;10.05;100.00
13080;BME280;6606;49.154;9.280;2023-02-23T03:04:19;99277.22;;;10.06;100.00
13080;BME280;6606;49.154;9.280;2023-02-23T03:07:25;99276.25;;;10.07;100.00
13080;BME280;6606;49.154;9.280;2023-02-23T03:10:32;99271.75;;;10.09;100.00
13080;BME280;6606;49.154;9.280;2023-02-23T03:13:42;99275.16;;;10.11;100.00
13080;BME280;6606;49.154;9.280;2023-02-23T03:16:51;99275.16;;;10.11;100.00
13080;BME280;6606;49.154;9.280;2023-02-23T03:19:56;99272.94;;;10.04;100.00
13080;BME280;6606;49.154;9.280;2023-02-23T03:23:00;99274.13;;;9.98;100.00
13080;BME280;6606;49.154;9.280;2023-02-23T03:26:07;99274.75;;;10.03;100.00
13080;BME280;6606;49.154;9.280;2023-02-23T03:29:15;99279.44;;;9.98;100.00
13080;BME280;6606;49.154;9.280;2023-02-23T03:32:24;99277.00;;;9.78;100.00
13080;BME280;6606;49.154;9.280;2023-02-23T03:35:29;99284.88;;;9.95;100.00
13080;BME280;6606;49.154;9.280;2023-02-23T03:38:35;99280.19;;;10.00;100.00
13080;BME280;6606;49.154;9.280;2023-02-23T03:41:39;99281.91;;;10.01;100.00
13080;BME280;6606;49.154;9.280;2023-02-23T03:44:42;99275.03;;;9.97;100.00
13080;BME280;6606;49.154;9.280;2023-02-23T03:47:43;99276.25;;;9.91;100.00
13080;BME280;6606;49.154;9.280;2023-02-23T03:50:46;99273.50;;;9.77;100.00
13080;BME280;6606;49.154;9.280;2023-02-23T03:53:52;99284.19;;;9.91;100.00
13080;BME280;6606;49.154;9.280;2023-02-23T03:56:55;99274.13;;;9.98;100.00
13080;BME280;6606;49.154;9.280;2023-02-23T03:59:57;99276.50;;;10.03;100.00
13080;BME280;6606;49.154;9.280;2023-02-23T04:03:00;99277.78;;;9.96;100.00
13080;BME280;6606;49.154;9.280;2023-02-23T04:06:03;99276.44;;;10.04;100.00
13080;BME280;6606;49.154;9.280;2023-02-23T04:09:06;99275.59;;;10.04;100.00
13080;BME280;6606;49.154;9.280;2023-02-23T04:12:11;99278.56;;;9.98;100.00
13080;BME280;6606;49.154;9.280;2023-02-23T04:15:17;99273.09;;;10.01;100.00
13080;BME280;6606;49.154;9.280;2023-02-23T04:18:02;99280.88;;;10.04;100.00
13080;BME280;6606;49.154;9.280;2023-02-23T04:20:45;99283.34;;;10.07;100.00
13080;BME280;6606;49.154;9.280;2023-02-23T04:23:27;99279.25;;;10.01;100.00
13080;BME280;6606;49.154;9.280;2023-02-23T04:26:09;99280.78;;;10.05;100.00
13080;BME280;6606;49.154;9.280;2023-02-23T04:28:52;99284.19;;;10.07;100.00
13080;BME280;6606;49.154;9.280;2023-02-23T04:31:33;99277.72;;;10.13;100.00
13080;BME280;6606;49.154;9.280;2023-02-23T04:34:15;99288.06;;;10.18;100.00
13080;BME280;6606;49.154;9.280;2023-02-23T04:36:57;99286.19;;;10.20;100.00
13080;BME280;6606;49.154;9.280;2023-02-23T04:39:38;99294.47;;;10.13;100.00
13080;BME280;6606;49.154;9.280;2023-02-23T04:42:22;99281.38;;;10.10;100.00
13080;BME280;6606;49.154;9.280;2023-02-23T04:45:06;99293.59;;;9.97;100.00
13080;BME280;6606;49.154;9.280;2023-02-23T04:47:47;99286.25;;;10.02;100.00
13080;BME280;6606;49.154;9.280;2023-02-23T04:50:29;99286.06;;;10.05;100.00
13080;BME280;6606;49.154;9.280;2023-02-23T04:53:11;99289.50;;;10.07;100.00
13080;BME280;6606;49.154;9.280;2023-02-23T04:55:52;99284.19;;;10.07;100.00
13080;BME280;6606;49.154;9.280;2023-02-23T04:58:34;99294.63;;;10.10;100.00
13080;BME280;6606;49.154;9.280;2023-02-23T05:01:17;99289.31;;;10.10;100.00
13080;BME280;6606;49.154;9.280;2023-02-23T05:04:00;99282.94;;;10.15;100.00
13080;BME280;6606;49.154;9.280;2023-02-23T05:06:41;99292.59;;;10.16;100.00
13080;BME280;6606;49.154;9.280;2023-02-23T05:09:23;99287.75;;;9.75;100.00
13080;BME280;6606;49.154;9.280;2023-02-23T05:12:05;99283.41;;;9.89;100.00
13080;BME280;6606;49.154;9.280;2023-02-23T05:14:46;99281.63;;;9.90;100.00
13080;BME280;6606;49.154;9.280;2023-02-23T05:17:29;99285.00;;;9.76;100.00
13080;BME280;6606;49.154;9.280;2023-02-23T05:20:12;99287.22;;;9.84;100.00
13080;BME280;6606;49.154;9.280;2023-02-23T05:22:54;99277.53;;;9.84;100.00
13080;BME280;6606;49.154;9.280;2023-02-23T05:25:36;99296.13;;;9.83;100.00
13080;BME280;6606;49.154;9.280;2023-02-23T05:28:18;99281.78;;;9.87;100.00
13080;BME280;6606;49.154;9.280;2023-02-23T05:31:00;99280.00;;;9.87;100.00
13080;BME280;6606;49.154;9.280;2023-02-23T05:33:44;99281.47;;;9.93;100.00
13080;BME280;6606;49.154;9.280;2023-02-23T05:36:25;99284.38;;;10.04;100.00
13080;BME280;6606;49.154;9.280;2023-02-23T05:39:07;99280.47;;;10.11;100.00
13080;BME280;6606;49.154;9.280;2023-02-23T05:41:49;99277.66;;;10.15;100.00
13080;BME280;6606;49.154;9.280;2023-02-23T05:44:31;99282.06;;;9.98;100.00
13080;BME280;6606;49.154;9.280;2023-02-23T05:47:13;99273.72;;;10.06;100.00
13080;BME280;6606;49.154;9.280;2023-02-23T05:49:56;99279.00;;;10.06;100.00
13080;BME280;6606;49.154;9.280;2023-02-23T05:52:38;99285.06;;;10.08;100.00
13080;BME280;6606;49.154;9.280;2023-02-23T05:55:21;99284.38;;;10.04;100.00
13080;BME280;6606;49.154;9.280;2023-02-23T05:58:02;99284.19;;;10.07;100.00
13080;BME280;6606;49.154;9.280;2023-02-23T06:00:44;99288.22;;;9.99;100.00
13080;BME280;6606;49.154;9.280;2023-02-23T06:03:26;99285.03;;;9.92;100.00
13080;BME280;6606;49.154;9.280;2023-02-23T06:06:09;99288.63;;;9.91;100.00
13080;BME280;6606;49.154;9.280;2023-02-23T06:08:51;99285.94;;;9.75;100.00
13080;BME280;6606;49.154;9.280;2023-02-23T06:11:33;99284.59;;;9.84;100.00
13080;BME280;6606;49.154;9.280;2023-02-23T06:14:15;99294.59;;;9.95;100.00
13080;BME280;6606;49.154;9.280;2023-02-23T06:16:56;99295.13;;;10.01;100.00
13080;BME280;6606;49.154;9.280;2023-02-23T06:19:39;99302.13;;;10.02;100.00
13080;BME280;6606;49.154;9.280;2023-02-23T06:22:22;99303.94;;;10.02;100.00
13080;BME280;6606;49.154;9.280;2023-02-23T06:25:05;99302.84;;;10.06;100.00
13080;BME280;6606;49.154;9.280;2023-02-23T06:27:52;99309.66;;;10.10;100.00
13080;BME280;6606;49.154;9.280;2023-02-23T06:30:34;99309.75;;;10.08;100.00
13080;BME280;6606;49.154;9.280;2023-02-23T06:33:16;99311.38;;;10.11;100.00
13080;BME280;6606;49.154;9.280;2023-02-23T06:35:58;99312.06;;;10.15;100.00
13080;BME280;6606;49.154;9.280;2023-02-23T06:38:41;99314.78;;;10.13;100.00
13080;BME280;6606;49.154;9.280;2023-02-23T06:41:24;99318.22;;;10.15;100.00
13080;BME280;6606;49.154;9.280;2023-02-23T06:44:06;99314.44;;;10.03;100.00
13080;BME280;6606;49.154;9.280;2023-02-23T06:46:48;99321.03;;;10.12;100.00
13080;BME280;6606;49.154;9.280;2023-02-23T06:49:31;99322.41;;;10.19;100.00
13080;BME280;6606;49.154;9.280;2023-02-23T06:52:13;99317.97;;;10.20;100.00
13080;BME280;6606;49.154;9.280;2023-02-23T06:54:56;99323.34;;;10.18;100.00
13080;BME280;6606;49.154;9.280;2023-02-23T06:57:38;99319.59;;;10.22;100.00
13080;BME280;6606;49.154;9.280;2023-02-23T07:00:23;99328.19;;;10.27;100.00
13080;BME280;6606;49.154;9.280;2023-02-23T07:03:05;99327.00;;;10.33;100.00
13080;BME280;6606;49.154;9.280;2023-02-23T07:05:47;99335.38;;;10.41;100.00
13080;BME280;6606;49.154;9.280;2023-02-23T07:08:29;99327.41;;;10.41;100.00
13080;BME280;6606;49.154;9.280;2023-02-23T07:11:14;99331.63;;;10.45;100.00
13080;BME280;6606;49.154;9.280;2023-02-23T07:13:56;99339.81;;;10.41;100.00
13080;BME280;6606;49.154;9.280;2023-02-23T07:16:38;99338.97;;;10.40;100.00
13080;BME280;6606;49.154;9.280;2023-02-23T07:19:20;99344.53;;;10.51;100.00
13080;BME280;6606;49.154;9.280;2023-02-23T07:22:03;99345.31;;;10.53;100.00
13080;BME280;6606;49.154;9.280;2023-02-23T07:24:45;99345.97;;;10.57;100.00
13080;BME280;6606;49.154;9.280;2023-02-23T07:27:28;99350.69;;;10.68;100.00
13080;BME280;6606;49.154;9.280;2023-02-23T07:30:11;99354.69;;;10.75;100.00
13080;BME280;6606;49.154;9.280;2023-02-23T07:32:53;99352.13;;;10.57;100.00
13080;BME280;6606;49.154;9.280;2023-02-23T07:35:35;99355.19;;;10.66;100.00
13080;BME280;6606;49.154;9.280;2023-02-23T07:38:16;99354.16;;;10.68;100.00
13080;BME280;6606;49.154;9.280;2023-02-23T07:40:58;99354.88;;;10.72;100.00
13080;BME280;6606;49.154;9.280;2023-02-23T07:43:41;99350.75;;;10.82;100.00
13080;BME280;6606;49.154;9.280;2023-02-23T07:46:23;99354.16;;;10.84;100.00
13080;BME280;6606;49.154;9.280;2023-02-23T07:49:05;99354.59;;;10.92;100.00
13080;BME280;6606;49.154;9.280;2023-02-23T07:51:55;99359.44;;;11.00;100.00
13080;BME280;6606;49.154;9.280;2023-02-23T07:54:40;99362.88;;;11.02;100.00
13080;BME280;6606;49.154;9.280;2023-02-23T07:57:25;99349.00;;;11.13;100.00
13080;BME280;6606;49.154;9.280;2023-02-23T08:00:11;99360.38;;;11.15;100.00
13080;BME280;6606;49.154;9.280;2023-02-23T08:02:53;99356.38;;;11.08;100.00
13080;BME280;6606;49.154;9.280;2023-02-23T08:05:34;99356.88;;;11.14;100.00
13080;BME280;6606;49.154;9.280;2023-02-23T08:08:19;99355.50;;;11.23;100.00
13080;BME280;6606;49.154;9.280;2023-02-23T08:11:02;99358.38;;;11.34;100.00
13080;BME280;6606;49.154;9.280;2023-02-23T08:13:44;99361.41;;;11.42;100.00
13080;BME280;6606;49.154;9.280;2023-02-23T08:16:28;99355.03;;;11.61;100.00
13080;BME280;6606;49.154;9.280;2023-02-23T08:19:10;99357.88;;;11.72;100.00
13080;BME280;6606;49.154;9.280;2023-02-23T08:21:52;99365.63;;;11.61;100.00
13080;BME280;6606;49.154;9.280;2023-02-23T08:24:33;99364.72;;;11.76;100.00
13080;BME280;6606;49.154;9.280;2023-02-23T08:27:16;99369.91;;;11.94;100.00
13080;BME280;6606;49.154;9.280;2023-02-23T08:29:58;99372.56;;;12.22;100.00
13080;BME280;6606;49.154;9.280;2023-02-23T08:32:44;99377.53;;;12.28;100.00
13080;BME280;6606;49.154;9.280;2023-02-23T08:35:26;99369.44;;;12.30;100.00
13080;BME280;6606;49.154;9.280;2023-02-23T08:38:10;99368.88;;;12.39;100.00
13080;BME280;6606;49.154;9.280;2023-02-23T08:40:52;99376.53;;;12.58;100.00
13080;BME280;6606;49.154;9.280;2023-02-23T08:43:34;99374.41;;;12.77;100.00
13080;BME280;6606;49.154;9.280;2023-02-23T08:46:16;99376.91;;;12.66;100.00
13080;BME280;6606;49.154;9.280;2023-02-23T08:49:02;99374.81;;;12.71;100.00
13080;BME280;6606;49.154;9.280;2023-02-23T08:51:46;99379.28;;;12.71;100.00
13080;BME280;6606;49.154;9.280;2023-02-23T08:55:12;99373.06;;;12.85;100.00
13080;BME280;6606;49.154;9.280;2023-02-23T08:58:01;99382.00;;;12.84;100.00
13080;BME280;6606;49.154;9.280;2023-02-23T09:00:43;99373.69;;;12.61;100.00
13080;BME280;6606;49.154;9.280;2023-02-23T09:03:26;99385.03;;;12.36;100.00
13080;BME280;6606;49.154;9.280;2023-02-23T09:06:14;99379.75;;;12.63;100.00
13080;BME280;6606;49.154;9.280;2023-02-23T09:08:56;99383.56;;;12.73;100.00
13080;BME280;6606;49.154;9.280;2023-02-23T09:11:38;99387.50;;;12.81;100.00
13080;BME280;6606;49.154;9.280;2023-02-23T09:14:19;99390.03;;;12.55;100.00
13080;BME280;6606;49.154;9.280;2023-02-23T09:17:01;99389.78;;;12.87;100.00
13080;BME280;6606;49.154;9.280;2023-02-23T09:19:43;99378.34;;;12.99;100.00
13080;BME280;6606;49.154;9.280;2023-02-23T09:22:26;99379.78;;;13.17;100.00
13080;BME280;6606;49.154;9.280;2023-02-23T09:25:08;99385.25;;;13.16;100.00
13080;BME280;6606;49.154;9.280;2023-02-23T09:27:53;99388.19;;;13.11;100.00
13080;BME280;6606;49.154;9.280;2023-02-23T09:30:37;99387.59;;;13.20;100.00
13080;BME280;6606;49.154;9.280;2023-02-23T09:33:19;99391.19;;;13.19;100.00
13080;BME280;6606;49.154;9.280;2023-02-23T09:36:03;99391.69;;;13.26;100.00
13080;BME280;6606;49.154;9.280;2023-02-23T09:38:49;99390.41;;;13.05;100.00
13080;BME280;6606;49.154;9.280;2023-02-23T09:41:55;99392.13;;;13.33;100.00
13080;BME280;6606;49.154;9.280;2023-02-23T09:44:53;99393.56;;;13.51;100.00
13080;BME280;6606;49.154;9.280;2023-02-23T09:47:46;99396.69;;;13.58;100.00
13080;BME280;6606;49.154;9.280;2023-02-23T09:50:33;99393.69;;;13.50;100.00
13080;BME280;6606;49.154;9.280;2023-02-23T09:53:32;99389.78;;;13.81;100.00
13080;BME280;6606;49.154;9.280;2023-02-23T09:56:19;99392.59;;;13.92;100.00
13080;BME280;6606;49.154;9.280;2023-02-23T09:59:03;99392.91;;;14.13;100.00
13080;BME280;6606;49.154;9.280;2023-02-23T10:01:55;99392.75;;;13.63;100.00
13080;BME280;6606;49.154;9.280;2023-02-23T10:04:42;99396.00;;;13.81;100.00
13080;BME280;6606;49.154;9.280;2023-02-23T10:07:35;99396.75;;;13.44;100.00
13080;BME280;6606;49.154;9.280;2023-02-23T10:10:27;99396.28;;;13.64;100.00
13080;BME280;6606;49.154;9.280;2023-02-23T10:13:19;99394.34;;;13.53;100.00
13080;BME280;6606;49.154;9.280;2023-02-23T10:16:12;99392.22;;;13.58;100.00
13080;BME280;6606;49.154;9.280;2023-02-23T10:19:04;99391.41;;;13.44;100.00
13080;BME280;6606;49.154;9.280;2023-02-23T10:21:52;99395.97;;;13.41;100.00
13080;BME280;6606;49.154;9.280;2023-02-23T10:24:36;99391.75;;;13.39;100.00
13080;BME280;6606;49.154;9.280;2023-02-23T10:27:23;99393.22;;;13.43;100.00
13080;BME280;6606;49.154;9.280;2023-02-23T10:30:18;99393.31;;;13.69;100.00
13080;BME280;6606;49.154;9.280;2023-02-23T10:33:06;99399.75;;;13.52;100.00
13080;BME280;6606;49.154;9.280;2023-02-23T10:35:57;99394.78;;;13.73;100.00
13080;BME280;6606;49.154;9.280;2023-02-23T10:38:41;99403.84;;;13.83;100.00
13080;BME280;6606;49.154;9.280;2023-02-23T10:41:22;99401.84;;;14.50;100.00
13080;BME280;6606;49.154;9.280;2023-02-23T10:44:09;99402.47;;;14.80;100.00
13080;BME280;6606;49.154;9.280;2023-02-23T10:46:55;99403.13;;;15.07;100.00
13080;BME280;6606;49.154;9.280;2023-02-23T10:49:42;99407.97;;;14.89;100.00
13080;BME280;6606;49.154;9.280;2023-02-23T10:52:29;99408.19;;;15.23;100.00
13080;BME280;6606;49.154;9.280;2023-02-23T10:55:21;99401.94;;;15.35;100.00
13080;BME280;6606;49.154;9.280;2023-02-23T10:58:08;99405.47;;;15.36;100.00
13080;BME280;6606;49.154;9.280;2023-02-23T11:00:58;99398.44;;;15.35;100.00
13080;BME280;6606;49.154;9.280;2023-02-23T11:03:43;99400.69;;;15.28;100.00
13080;BME280;6606;49.154;9.280;2023-02-23T11:06:28;99401.75;;;15.50;100.00
13080;BME280;6606;49.154;9.280;2023-02-23T11:09:26;99401.72;;;15.38;100.00
13080;BME280;6606;49.154;9.280;2023-02-23T11:12:15;99390.72;;;15.78;100.00
13080;BME280;6606;49.154;9.280;2023-02-23T11:15:20;99387.50;;;15.38;100.00
13080;BME280;6606;49.154;9.280;2023-02-23T11:18:03;99381.19;;;15.39;100.00
13080;BME280;6606;49.154;9.280;2023-02-23T11:20:47;99385.22;;;15.45;100.00
13080;BME280;6606;49.154;9.280;2023-02-23T11:23:33;99390.03;;;14.91;100.00
13080;BME280;6606;49.154;9.280;2023-02-23T11:26:26;99374.63;;;14.71;100.00
13080;BME280;6606;49.154;9.280;2023-02-23T11:29:13;99377.56;;;15.16;100.00
13080;BME280;6606;49.154;9.280;2023-02-23T11:31:57;99371.38;;;15.15;100.00
13080;BME280;6606;49.154;9.280;2023-02-23T11:34:39;99376.38;;;14.96;100.00
13080;BME280;6606;49.154;9.280;2023-02-23T11:37:24;99377.31;;;14.95;100.00
13080;BME280;6606;49.154;9.280;2023-02-23T11:40:18;99370.75;;;15.12;100.00
13080;BME280;6606;49.154;9.280;2023-02-23T11:43:06;99372.72;;;15.21;100.00
13080;BME280;6606;49.154;9.280;2023-02-23T11:45:50;99369.13;;;14.98;100.00
13080;BME280;6606;49.154;9.280;2023-02-23T11:48:33;99370.19;;;15.44;100.00
13080;BME280;6606;49.154;9.280;2023-02-23T11:51:24;99365.91;;;15.41;100.00
13080;BME280;6606;49.154;9.280;2023-02-23T11:54:19;99361.50;;;15.64;100.00
13080;BME280;6606;49.154;9.280;2023-02-23T11:57:09;99354.31;;;16.11;100.00
13080;BME280;6606;49.154;9.280;2023-02-23T12:00:09;99349.59;;;16.37;100.00
13080;BME280;6606;49.154;9.280;2023-02-23T12:02:56;99346.06;;;16.48;100.00
13080;BME280;6606;49.154;9.280;2023-02-23T12:05:39;99345.94;;;16.04;100.00
13080;BME280;6606;49.154;9.280;2023-02-23T12:08:33;99350.19;;;15.96;100.00
13080;BME280;6606;49.154;9.280;2023-02-23T12:11:23;99347.53;;;16.41;100.00
13080;BME280;6606;49.154;9.280;2023-02-23T12:14:11;99348.03;;;16.46;100.00
13080;BME280;6606;49.154;9.280;2023-02-23T12:17:01;99345.34;;;16.57;100.00
13080;BME280;6606;49.154;9.280;2023-02-23T12:19:48;99336.09;;;16.50;100.00
13080;BME280;6606;49.154;9.280;2023-02-23T12:22:38;99343.03;;;16.53;100.00
13080;BME280;6606;49.154;9.280;2023-02-23T12:25:24;99336.69;;;16.65;100.00
13080;BME280;6606;49.154;9.280;2023-02-23T12:28:13;99332.91;;;16.56;100.00
13080;BME280;6606;49.154;9.280;2023-02-23T12:31:01;99327.44;;;16.58;100.00
13080;BME280;6606;49.154;9.280;2023-02-23T12:33:47;99327.59;;;17.11;100.00
13080;BME280;6606;49.154;9.280;2023-02-23T12:36:36;99322.41;;;16.98;100.00
13080;BME280;6606;49.154;9.280;2023-02-23T12:39:23;99329.50;;;16.65;100.00
13080;BME280;6606;49.154;9.280;2023-02-23T12:42:15;99319.53;;;16.67;100.00
13080;BME280;6606;49.154;9.280;2023-02-23T12:45:03;99320.72;;;16.75;100.00
13080;BME280;6606;49.154;9.280;2023-02-23T12:47:50;99311.28;;;16.59;100.00
13080;BME280;6606;49.154;9.280;2023-02-23T12:50:38;99315.19;;;16.44;100.00
13080;BME280;6606;49.154;9.280;2023-02-23T12:53:26;99314.22;;;16.34;100.00
13080;BME280;6606;49.154;9.280;2023-02-23T12:56:18;99318.84;;;16.20;100.00
13080;BME280;6606;49.154;9.280;2023-02-23T12:59:18;99313.00;;;16.04;100.00
13080;BME280;6606;49.154;9.280;2023-02-23T13:02:09;99311.03;;;15.95;100.00
13080;BME280;6606;49.154;9.280;2023-02-23T13:05:12;99308.28;;;15.61;100.00
13080;BME280;6606;49.154;9.280;2023-02-23T13:08:10;99314.13;;;15.20;100.00
13080;BME280;6606;49.154;9.280;2023-02-23T13:11:05;99309.91;;;15.28;100.00
13080;BME280;6606;49.154;9.280;2023-02-23T13:13:55;99304.25;;;15.44;100.00
13080;BME280;6606;49.154;9.280;2023-02-23T13:16:42;99311.84;;;15.02;100.00
13080;BME280;6606;49.154;9.280;2023-02-23T13:19:29;99307.94;;;14.71;100.00
13080;BME280;6606;49.154;9.280;2023-02-23T13:22:25;99308.44;;;14.76;100.00
13080;BME280;6606;49.154;9.280;2023-02-23T13:25:20;99308.00;;;14.82;100.00
13080;BME280;6606;49.154;9.280;2023-02-23T13:28:07;99302.22;;;14.39;100.00
13080;BME280;6606;49.154;9.280;2023-02-23T13:30:54;99298.50;;;14.41;100.00
13080;BME280;6606;49.154;9.280;2023-02-23T13:33:37;99312.88;;;14.51;100.00
13080;BME280;6606;49.154;9.280;2023-02-23T13:36:25;99310.25;;;14.76;100.00
13080;BME280;6606;49.154;9.280;2023-02-23T13:39:34;99304.03;;;14.88;100.00
13080;BME280;6606;49.154;9.280;2023-02-23T13:42:26;99309.53;;;14.98;100.00
13080;BME280;6606;49.154;9.280;2023-02-23T13:45:27;99306.22;;;15.18;100.00
13080;BME280;6606;49.154;9.280;2023-02-23T13:48:17;99299.63;;;15.11;100.00
13080;BME280;6606;49.154;9.280;2023-02-23T13:51:05;99306.97;;;14.96;100.00
13080;BME280;6606;49.154;9.280;2023-02-23T13:54:00;99301.47;;;14.86;100.00
13080;BME280;6606;49.154;9.280;2023-02-23T13:56:43;99305.94;;;15.10;100.00
13080;BME280;6606;49.154;9.280;2023-02-23T13:59:27;99298.53;;;15.37;100.00
13080;BME280;6606;49.154;9.280;2023-02-23T14:02:26;99295.38;;;15.44;100.00
13080;BME280;6606;49.154;9.280;2023-02-23T14:05:16;99289.13;;;15.56;100.00
13080;BME280;6606;49.154;9.280;2023-02-23T14:08:00;99296.16;;;15.57;100.00
13080;BME280;6606;49.154;9.280;2023-02-23T14:10:45;99292.66;;;15.68;100.00
13080;BME280;6606;49.154;9.280;2023-02-23T14:13:29;99286.06;;;15.60;100.00
13080;BME280;6606;49.154;9.280;2023-02-23T14:16:15;99291.03;;;15.54;100.00
13080;BME280;6606;49.154;9.280;2023-02-23T14:19:11;99284.56;;;15.45;100.00
13080;BME280;6606;49.154;9.280;2023-02-23T14:21:58;99282.22;;;15.29;100.00
13080;BME280;6606;49.154;9.280;2023-02-23T14:24:42;99286.16;;;15.48;100.00
13080;BME280;6606;49.154;9.280;2023-02-23T14:27:32;99283.09;;;15.30;100.00
13080;BME280;6606;49.154;9.280;2023-02-23T14:30:24;99282.47;;;15.26;100.00
13080;BME280;6606;49.154;9.280;2023-02-23T14:33:33;99283.97;;;15.53;100.00
13080;BME280;6606;49.154;9.280;2023-02-23T14:36:37;99286.56;;;15.66;100.00
13080;BME280;6606;49.154;9.280;2023-02-23T14:39:25;99288.63;;;15.51;100.00
13080;BME280;6606;49.154;9.280;2023-02-23T14:42:18;99286.44;;;15.21;100.00
13080;BME280;6606;49.154;9.280;2023-02-23T14:45:20;99281.44;;;15.40;100.00
13080;BME280;6606;49.154;9.280;2023-02-23T14:48:09;99282.03;;;15.44;100.00
13080;BME280;6606;49.154;9.280;2023-02-23T14:51:09;99285.34;;;15.12;100.00
13080;BME280;6606;49.154;9.280;2023-02-23T14:53:57;99285.38;;;15.23;100.00
13080;BME280;6606;49.154;9.280;2023-02-23T14:56:46;99283.22;;;15.39;100.00
13080;BME280;6606;49.154;9.280;2023-02-23T14:59:36;99275.47;;;15.48;100.00
13080;BME280;6606;49.154;9.280;2023-02-23T15:02:23;99282.19;;;15.53;100.00